Hauptseite
METAR-TAF:

METAR-TAF

Flughäfen :

Flughafen Curaçao

Curaçao, Niederländische Antillen

Breite: 12-12N, Länge: 068-58W, Höhe: 9 m

Beobachtung

Neuester Wetterbericht von vor 20 Minuten, um 12:00 UTC
Wind 17 kt aus Südost
Temperatur 29°C
Luftfeuchtigkeit 66%
Luftdruck 1015 hPa
Sichtweite 10 km oder mehr

METAR: TNCC 181200Z AUTO 13017KT 9999 NCD 29/22 Q1015 NOSIG

Zeit: 08:20 (12:20 UTC)

Prognose

Neuester Wetterbericht von vor 2 Stunden und 20 Minuten, um 10:00 UTC
Gültige Prognose vom 18 um 12 UTC bis 19 um 12 UTC
Wind 15 kt aus Ost
Sichtweite 10 km oder mehr
Aufgelockert bewölkt in der Höhe von 2000 ft
Wahrscheinlichkeit 30% :
Zeitweise
vom 18 um 12 UTC bis 18 um 16 UTC
Durchbrochene Bewölkung in der Höhe von 1500 ft

TAF: TNCC 181000Z 1812/1912 09015KT 9999 SCT020 PROB30 TEMPO 1812/1816 BKN015

Wetterbeobachtungen und Prognosen von mehr als 4000 Flughäfen (METAR und TAF Bericht).

Die verfügbaren Stationen werden durch gelbe und rote Markierungen auf der Karte dargestellt.

Führen Sie die Maus auf sie, um den Namen der Station zu sehen.

Darauf klicken, um die Beobachtung von Wetterbeobachtungen und Prognosen zu sehen.

Um die Karte zu ändern : klicken Sie auf den grünen Tasten mit einem schwarzen Kreuz Zum Vergrößern, auf den grünen Button mit einem Gedankenstrich zu verkleinern, oder auf die grünen Pfeile für benachbarte Karten.


METAR-TAF: